sensor_id;sensor_type;location;lat;lon;timestamp;P1;durP1;ratioP1;P2;durP2;ratioP2
75061;SDS011;63641;46.526;24.612;2023-04-24T00:01:14;4.60;;;3.95;;
75061;SDS011;63641;46.526;24.612;2023-04-24T00:03:41;5.00;;;4.50;;
75061;SDS011;63641;46.526;24.612;2023-04-24T00:06:08;5.13;;;4.68;;
75061;SDS011;63641;46.526;24.612;2023-04-24T00:08:35;5.00;;;4.50;;
75061;SDS011;63641;46.526;24.612;2023-04-24T00:11:02;6.63;;;4.18;;
75061;SDS011;63641;46.526;24.612;2023-04-24T00:13:29;6.15;;;4.50;;
75061;SDS011;63641;46.526;24.612;2023-04-24T00:15:56;4.28;;;3.80;;
75061;SDS011;63641;46.526;24.612;2023-04-24T00:18:22;4.43;;;3.78;;
75061;SDS011;63641;46.526;24.612;2023-04-24T00:20:50;4.85;;;4.18;;
75061;SDS011;63641;46.526;24.612;2023-04-24T00:23:16;4.18;;;3.78;;
75061;SDS011;63641;46.526;24.612;2023-04-24T00:25:43;4.15;;;3.75;;
75061;SDS011;63641;46.526;24.612;2023-04-24T00:28:10;4.68;;;4.28;;
75061;SDS011;63641;46.526;24.612;2023-04-24T00:30:36;4.10;;;3.80;;
75061;SDS011;63641;46.526;24.612;2023-04-24T00:33:03;4.32;;;3.80;;
75061;SDS011;63641;46.526;24.612;2023-04-24T00:35:30;3.95;;;3.65;;
75061;SDS011;63641;46.526;24.612;2023-04-24T00:37:57;3.85;;;3.55;;
75061;SDS011;63641;46.526;24.612;2023-04-24T00:40:23;5.05;;;3.67;;
75061;SDS011;63641;46.526;24.612;2023-04-24T00:42:51;4.60;;;4.20;;
75061;SDS011;63641;46.526;24.612;2023-04-24T00:45:18;4.22;;;3.80;;
75061;SDS011;63641;46.526;24.612;2023-04-24T00:47:44;4.22;;;3.53;;
75061;SDS011;63641;46.526;24.612;2023-04-24T00:50:12;4.10;;;3.80;;
75061;SDS011;63641;46.526;24.612;2023-04-24T00:52:41;4.32;;;3.60;;
75061;SDS011;63641;46.526;24.612;2023-04-24T00:55:08;4.60;;;4.20;;
75061;SDS011;63641;46.526;24.612;2023-04-24T00:57:36;4.30;;;3.90;;
75061;SDS011;63641;46.526;24.612;2023-04-24T01:00:04;5.00;;;4.07;;
75061;SDS011;63641;46.526;24.612;2023-04-24T01:02:32;4.15;;;3.75;;
75061;SDS011;63641;46.526;24.612;2023-04-24T01:05:01;4.50;;;4.10;;
75061;SDS011;63641;46.526;24.612;2023-04-24T01:07:27;4.90;;;4.40;;
75061;SDS011;63641;46.526;24.612;2023-04-24T01:09:55;4.30;;;3.90;;
75061;SDS011;63641;46.526;24.612;2023-04-24T01:12:22;3.72;;;3.42;;
75061;SDS011;63641;46.526;24.612;2023-04-24T01:14:49;4.60;;;4.00;;
75061;SDS011;63641;46.526;24.612;2023-04-24T01:17:15;4.60;;;3.92;;
75061;SDS011;63641;46.526;24.612;2023-04-24T01:19:42;3.88;;;3.15;;
75061;SDS011;63641;46.526;24.612;2023-04-24T01:22:13;4.22;;;3.83;;
75061;SDS011;63641;46.526;24.612;2023-04-24T01:24:41;4.57;;;3.55;;
75061;SDS011;63641;46.526;24.612;2023-04-24T01:27:09;4.00;;;3.60;;
75061;SDS011;63641;46.526;24.612;2023-04-24T01:29:36;3.63;;;3.30;;
75061;SDS011;63641;46.526;24.612;2023-04-24T01:32:03;3.90;;;3.50;;
75061;SDS011;63641;46.526;24.612;2023-04-24T01:34:31;3.95;;;3.60;;
75061;SDS011;63641;46.526;24.612;2023-04-24T01:36:58;4.78;;;4.00;;
75061;SDS011;63641;46.526;24.612;2023-04-24T01:39:25;4.05;;;3.75;;
75061;SDS011;63641;46.526;24.612;2023-04-24T01:41:55;4.05;;;3.75;;
75061;SDS011;63641;46.526;24.612;2023-04-24T01:44:21;4.07;;;3.67;;
75061;SDS011;63641;46.526;24.612;2023-04-24T01:46:49;4.35;;;3.60;;
75061;SDS011;63641;46.526;24.612;2023-04-24T01:49:17;4.47;;;4.00;;
75061;SDS011;63641;46.526;24.612;2023-04-24T01:51:44;4.45;;;4.05;;
75061;SDS011;63641;46.526;24.612;2023-04-24T01:54:11;5.05;;;3.85;;
75061;SDS011;63641;46.526;24.612;2023-04-24T01:56:41;4.70;;;3.95;;
75061;SDS011;63641;46.526;24.612;2023-04-24T01:59:09;5.28;;;4.35;;
75061;SDS011;63641;46.526;24.612;2023-04-24T02:01:37;4.50;;;3.85;;
75061;SDS011;63641;46.526;24.612;2023-04-24T02:04:05;4.40;;;4.00;;
75061;SDS011;63641;46.526;24.612;2023-04-24T02:06:33;4.22;;;3.83;;
75061;SDS011;63641;46.526;24.612;2023-04-24T02:09:00;4.07;;;3.67;;
75061;SDS011;63641;46.526;24.612;2023-04-24T02:11:27;4.25;;;3.85;;
75061;SDS011;63641;46.526;24.612;2023-04-24T02:13:54;4.07;;;3.67;;
75061;SDS011;63641;46.526;24.612;2023-04-24T02:16:20;4.53;;;4.10;;
75061;SDS011;63641;46.526;24.612;2023-04-24T02:18:48;4.78;;;3.70;;
75061;SDS011;63641;46.526;24.612;2023-04-24T02:21:14;3.90;;;3.40;;
75061;SDS011;63641;46.526;24.612;2023-04-24T02:23:41;4.10;;;3.70;;
75061;SDS011;63641;46.526;24.612;2023-04-24T02:26:08;7.07;;;4.30;;
75061;SDS011;63641;46.526;24.612;2023-04-24T02:28:34;6.80;;;4.20;;
75061;SDS011;63641;46.526;24.612;2023-04-24T02:31:01;4.25;;;3.70;;
75061;SDS011;63641;46.526;24.612;2023-04-24T02:33:28;6.30;;;4.28;;
75061;SDS011;63641;46.526;24.612;2023-04-24T02:35:55;4.20;;;3.90;;
75061;SDS011;63641;46.526;24.612;2023-04-24T02:38:22;4.75;;;4.32;;
75061;SDS011;63641;46.526;24.612;2023-04-24T02:40:48;4.50;;;4.15;;
75061;SDS011;63641;46.526;24.612;2023-04-24T02:43:15;4.57;;;4.07;;
75061;SDS011;63641;46.526;24.612;2023-04-24T02:45:42;4.43;;;4.03;;
75061;SDS011;63641;46.526;24.612;2023-04-24T02:48:09;4.03;;;3.63;;
75061;SDS011;63641;46.526;24.612;2023-04-24T02:50:35;4.30;;;3.90;;
75061;SDS011;63641;46.526;24.612;2023-04-24T02:53:02;4.30;;;3.90;;
75061;SDS011;63641;46.526;24.612;2023-04-24T02:55:29;4.38;;;3.70;;
75061;SDS011;63641;46.526;24.612;2023-04-24T02:57:56;5.00;;;4.00;;
75061;SDS011;63641;46.526;24.612;2023-04-24T03:00:23;4.38;;;3.97;;
75061;SDS011;63641;46.526;24.612;2023-04-24T03:02:50;4.10;;;3.70;;
75061;SDS011;63641;46.526;24.612;2023-04-24T03:05:17;4.22;;;3.85;;
75061;SDS011;63641;46.526;24.612;2023-04-24T03:07:43;3.90;;;3.55;;
75061;SDS011;63641;46.526;24.612;2023-04-24T03:10:11;3.90;;;3.53;;
75061;SDS011;63641;46.526;24.612;2023-04-24T03:12:38;4.82;;;3.90;;
75061;SDS011;63641;46.526;24.612;2023-04-24T03:15:05;5.10;;;4.40;;
75061;SDS011;63641;46.526;24.612;2023-04-24T03:17:32;3.70;;;3.40;;
75061;SDS011;63641;46.526;24.612;2023-04-24T03:19:59;4.85;;;4.45;;
75061;SDS011;63641;46.526;24.612;2023-04-24T03:22:26;4.95;;;4.45;;
75061;SDS011;63641;46.526;24.612;2023-04-24T03:24:53;4.05;;;3.70;;
75061;SDS011;63641;46.526;24.612;2023-04-24T03:27:21;4.95;;;3.72;;
75061;SDS011;63641;46.526;24.612;2023-04-24T03:29:47;5.10;;;4.60;;
75061;SDS011;63641;46.526;24.612;2023-04-24T03:32:14;5.18;;;3.72;;
75061;SDS011;63641;46.526;24.612;2023-04-24T03:34:41;5.72;;;3.63;;
75061;SDS011;63641;46.526;24.612;2023-04-24T03:37:07;4.25;;;3.80;;
75061;SDS011;63641;46.526;24.612;2023-04-24T03:39:34;4.15;;;3.75;;
75061;SDS011;63641;46.526;24.612;2023-04-24T03:42:01;4.32;;;3.92;;
75061;SDS011;63641;46.526;24.612;2023-04-24T03:44:28;5.15;;;4.32;;
75061;SDS011;63641;46.526;24.612;2023-04-24T03:46:55;4.70;;;4.30;;
75061;SDS011;63641;46.526;24.612;2023-04-24T03:49:22;6.82;;;4.30;;
75061;SDS011;63641;46.526;24.612;2023-04-24T03:51:48;6.32;;;5.00;;
75061;SDS011;63641;46.526;24.612;2023-04-24T03:54:15;5.35;;;4.85;;
75061;SDS011;63641;46.526;24.612;2023-04-24T03:56:42;4.35;;;3.92;;
75061;SDS011;63641;46.526;24.612;2023-04-24T03:59:10;4.10;;;3.70;;
75061;SDS011;63641;46.526;24.612;2023-04-24T04:01:37;3.95;;;3.55;;
75061;SDS011;63641;46.526;24.612;2023-04-24T04:04:04;4.75;;;4.00;;
75061;SDS011;63641;46.526;24.612;2023-04-24T04:06:31;4.50;;;4.10;;
75061;SDS011;63641;46.526;24.612;2023-04-24T04:08:59;4.78;;;3.92;;
75061;SDS011;63641;46.526;24.612;2023-04-24T04:11:26;4.43;;;4.03;;
75061;SDS011;63641;46.526;24.612;2023-04-24T04:13:53;4.50;;;4.10;;
75061;SDS011;63641;46.526;24.612;2023-04-24T04:16:20;4.63;;;4.15;;
75061;SDS011;63641;46.526;24.612;2023-04-24T04:18:47;4.20;;;3.80;;
75061;SDS011;63641;46.526;24.612;2023-04-24T04:21:13;4.72;;;4.32;;
75061;SDS011;63641;46.526;24.612;2023-04-24T04:23:40;5.35;;;4.60;;
75061;SDS011;63641;46.526;24.612;2023-04-24T04:26:08;4.88;;;4.40;;
75061;SDS011;63641;46.526;24.612;2023-04-24T04:28:34;4.47;;;4.07;;
75061;SDS011;63641;46.526;24.612;2023-04-24T04:31:01;7.13;;;5.20;;
75061;SDS011;63641;46.526;24.612;2023-04-24T04:33:28;6.72;;;5.03;;
75061;SDS011;63641;46.526;24.612;2023-04-24T04:35:54;16.15;;;5.00;;
75061;SDS011;63641;46.526;24.612;2023-04-24T04:38:23;8.10;;;5.65;;
75061;SDS011;63641;46.526;24.612;2023-04-24T04:40:51;5.75;;;5.18;;
75061;SDS011;63641;46.526;24.612;2023-04-24T04:43:18;6.38;;;5.55;;
75061;SDS011;63641;46.526;24.612;2023-04-24T04:45:45;7.75;;;6.75;;
75061;SDS011;63641;46.526;24.612;2023-04-24T04:48:12;10.60;;;7.63;;
75061;SDS011;63641;46.526;24.612;2023-04-24T04:50:40;7.00;;;6.30;;
75061;SDS011;63641;46.526;24.612;2023-04-24T04:53:06;7.57;;;6.75;;
75061;SDS011;63641;46.526;24.612;2023-04-24T04:55:33;7.35;;;6.60;;
75061;SDS011;63641;46.526;24.612;2023-04-24T04:58:00;7.78;;;6.45;;
75061;SDS011;63641;46.526;24.612;2023-04-24T05:00:31;7.50;;;6.40;;
75061;SDS011;63641;46.526;24.612;2023-04-24T05:03:02;7.78;;;6.63;;
75061;SDS011;63641;46.526;24.612;2023-04-24T05:05:45;10.90;;;7.37;;
75061;SDS011;63641;46.526;24.612;2023-04-24T05:08:12;12.20;;;7.47;;
75061;SDS011;63641;46.526;24.612;2023-04-24T05:10:52;9.82;;;8.80;;
75061;SDS011;63641;46.526;24.612;2023-04-24T05:13:19;10.95;;;7.05;;
75061;SDS011;63641;46.526;24.612;2023-04-24T05:15:57;8.60;;;7.30;;
75061;SDS011;63641;46.526;24.612;2023-04-24T05:18:24;8.27;;;7.22;;
75061;SDS011;63641;46.526;24.612;2023-04-24T05:20:51;9.52;;;7.60;;
75061;SDS011;63641;46.526;24.612;2023-04-24T05:23:18;10.27;;;7.65;;
75061;SDS011;63641;46.526;24.612;2023-04-24T05:25:45;8.65;;;7.13;;
75061;SDS011;63641;46.526;24.612;2023-04-24T05:28:12;9.30;;;7.57;;
75061;SDS011;63641;46.526;24.612;2023-04-24T05:30:39;9.75;;;7.28;;
75061;SDS011;63641;46.526;24.612;2023-04-24T05:33:06;7.07;;;6.18;;
75061;SDS011;63641;46.526;24.612;2023-04-24T05:35:33;6.82;;;6.13;;
75061;SDS011;63641;46.526;24.612;2023-04-24T05:37:59;7.55;;;6.57;;
75061;SDS011;63641;46.526;24.612;2023-04-24T05:40:26;8.02;;;6.70;;
75061;SDS011;63641;46.526;24.612;2023-04-24T05:42:53;6.72;;;5.90;;
75061;SDS011;63641;46.526;24.612;2023-04-24T05:45:20;6.72;;;6.03;;
75061;SDS011;63641;46.526;24.612;2023-04-24T05:47:46;7.07;;;5.53;;
75061;SDS011;63641;46.526;24.612;2023-04-24T05:50:13;6.10;;;5.50;;
75061;SDS011;63641;46.526;24.612;2023-04-24T05:52:41;6.57;;;5.38;;
75061;SDS011;63641;46.526;24.612;2023-04-24T05:55:08;6.82;;;5.60;;
75061;SDS011;63641;46.526;24.612;2023-04-24T05:57:34;7.15;;;5.68;;
75061;SDS011;63641;46.526;24.612;2023-04-24T06:00:01;6.93;;;6.25;;
75061;SDS011;63641;46.526;24.612;2023-04-24T06:02:29;5.55;;;5.05;;
75061;SDS011;63641;46.526;24.612;2023-04-24T06:04:59;6.32;;;5.57;;
75061;SDS011;63641;46.526;24.612;2023-04-24T06:07:26;4.95;;;4.43;;
75061;SDS011;63641;46.526;24.612;2023-04-24T06:09:52;4.90;;;4.10;;
75061;SDS011;63641;46.526;24.612;2023-04-24T06:12:19;4.75;;;4.30;;
75061;SDS011;63641;46.526;24.612;2023-04-24T06:14:46;5.25;;;4.15;;
75061;SDS011;63641;46.526;24.612;2023-04-24T06:17:13;4.60;;;4.20;;
75061;SDS011;63641;46.526;24.612;2023-04-24T06:19:40;5.28;;;4.28;;
75061;SDS011;63641;46.526;24.612;2023-04-24T06:22:07;4.72;;;3.80;;
75061;SDS011;63641;46.526;24.612;2023-04-24T06:24:36;4.32;;;3.55;;
75061;SDS011;63641;46.526;24.612;2023-04-24T06:27:03;4.32;;;3.92;;
75061;SDS011;63641;46.526;24.612;2023-04-24T06:29:29;4.03;;;3.70;;
75061;SDS011;63641;46.526;24.612;2023-04-24T06:31:56;4.28;;;3.88;;
75061;SDS011;63641;46.526;24.612;2023-04-24T06:34:23;5.05;;;4.55;;
75061;SDS011;63641;46.526;24.612;2023-04-24T06:36:49;5.60;;;3.70;;
75061;SDS011;63641;46.526;24.612;2023-04-24T06:39:17;3.97;;;3.58;;
75061;SDS011;63641;46.526;24.612;2023-04-24T06:41:43;4.32;;;3.83;;
75061;SDS011;63641;46.526;24.612;2023-04-24T06:44:10;5.15;;;3.75;;
75061;SDS011;63641;46.526;24.612;2023-04-24T06:46:37;6.82;;;4.00;;
75061;SDS011;63641;46.526;24.612;2023-04-24T06:49:06;3.83;;;3.50;;
75061;SDS011;63641;46.526;24.612;2023-04-24T06:51:33;5.68;;;3.55;;
75061;SDS011;63641;46.526;24.612;2023-04-24T06:54:01;4.18;;;3.65;;
75061;SDS011;63641;46.526;24.612;2023-04-24T06:56:28;3.85;;;3.45;;
75061;SDS011;63641;46.526;24.612;2023-04-24T06:58:57;4.13;;;3.47;;
75061;SDS011;63641;46.526;24.612;2023-04-24T07:01:24;4.97;;;3.53;;
75061;SDS011;63641;46.526;24.612;2023-04-24T07:03:51;3.58;;;3.28;;
75061;SDS011;63641;46.526;24.612;2023-04-24T07:06:18;5.32;;;3.45;;
75061;SDS011;63641;46.526;24.612;2023-04-24T07:08:48;3.78;;;3.25;;
75061;SDS011;63641;46.526;24.612;2023-04-24T07:11:15;3.53;;;3.17;;
75061;SDS011;63641;46.526;24.612;2023-04-24T07:13:42;3.75;;;3.38;;
75061;SDS011;63641;46.526;24.612;2023-04-24T07:16:10;3.95;;;3.33;;
75061;SDS011;63641;46.526;24.612;2023-04-24T07:18:37;5.30;;;3.30;;
75061;SDS011;63641;46.526;24.612;2023-04-24T07:21:06;3.17;;;2.88;;
75061;SDS011;63641;46.526;24.612;2023-04-24T07:23:33;3.13;;;2.83;;
75061;SDS011;63641;46.526;24.612;2023-04-24T07:26:00;2.88;;;2.67;;
75061;SDS011;63641;46.526;24.612;2023-04-24T07:28:26;4.00;;;3.03;;
75061;SDS011;63641;46.526;24.612;2023-04-24T07:30:57;3.33;;;2.90;;
75061;SDS011;63641;46.526;24.612;2023-04-24T07:33:25;4.05;;;3.30;;
75061;SDS011;63641;46.526;24.612;2023-04-24T07:35:54;6.03;;;3.50;;
75061;SDS011;63641;46.526;24.612;2023-04-24T07:38:21;3.55;;;3.25;;
75061;SDS011;63641;46.526;24.612;2023-04-24T07:40:48;3.50;;;2.90;;
75061;SDS011;63641;46.526;24.612;2023-04-24T07:43:15;5.28;;;3.35;;
75061;SDS011;63641;46.526;24.612;2023-04-24T07:45:42;3.92;;;3.03;;
75061;SDS011;63641;46.526;24.612;2023-04-24T07:48:09;3.85;;;3.17;;
75061;SDS011;63641;46.526;24.612;2023-04-24T07:50:36;3.50;;;3.20;;
75061;SDS011;63641;46.526;24.612;2023-04-24T07:53:03;3.25;;;2.92;;
75061;SDS011;63641;46.526;24.612;2023-04-24T07:55:30;3.35;;;3.05;;
75061;SDS011;63641;46.526;24.612;2023-04-24T07:57:57;3.45;;;3.10;;
75061;SDS011;63641;46.526;24.612;2023-04-24T08:00:28;4.18;;;3.13;;
75061;SDS011;63641;46.526;24.612;2023-04-24T08:02:55;5.13;;;2.80;;
75061;SDS011;63641;46.526;24.612;2023-04-24T08:05:22;4.95;;;2.70;;
75061;SDS011;63641;46.526;24.612;2023-04-24T08:07:52;2.80;;;2.60;;
75061;SDS011;63641;46.526;24.612;2023-04-24T08:10:19;4.88;;;3.17;;
75061;SDS011;63641;46.526;24.612;2023-04-24T08:12:46;3.00;;;2.53;;
75061;SDS011;63641;46.526;24.612;2023-04-24T08:15:13;4.95;;;2.53;;
75061;SDS011;63641;46.526;24.612;2023-04-24T08:17:40;3.25;;;2.70;;
75061;SDS011;63641;46.526;24.612;2023-04-24T08:20:08;5.40;;;2.92;;
75061;SDS011;63641;46.526;24.612;2023-04-24T08:22:40;4.10;;;3.22;;
75061;SDS011;63641;46.526;24.612;2023-04-24T08:25:07;4.60;;;2.88;;
75061;SDS011;63641;46.526;24.612;2023-04-24T08:27:35;3.97;;;2.70;;
75061;SDS011;63641;46.526;24.612;2023-04-24T08:30:03;3.00;;;2.70;;
75061;SDS011;63641;46.526;24.612;2023-04-24T08:32:31;3.08;;;2.60;;
75061;SDS011;63641;46.526;24.612;2023-04-24T08:34:58;3.40;;;2.50;;
75061;SDS011;63641;46.526;24.612;2023-04-24T08:37:26;2.80;;;2.55;;
75061;SDS011;63641;46.526;24.612;2023-04-24T08:39:53;3.45;;;2.90;;
75061;SDS011;63641;46.526;24.612;2023-04-24T08:42:20;3.75;;;2.70;;
75061;SDS011;63641;46.526;24.612;2023-04-24T08:44:48;3.80;;;3.15;;
75061;SDS011;63641;46.526;24.612;2023-04-24T08:47:16;5.07;;;3.17;;
75061;SDS011;63641;46.526;24.612;2023-04-24T08:49:44;2.70;;;2.50;;
75061;SDS011;63641;46.526;24.612;2023-04-24T08:52:12;3.15;;;2.95;;
75061;SDS011;63641;46.526;24.612;2023-04-24T08:54:39;3.20;;;2.88;;
75061;SDS011;63641;46.526;24.612;2023-04-24T08:57:09;4.88;;;2.85;;
75061;SDS011;63641;46.526;24.612;2023-04-24T08:59:37;3.42;;;2.60;;
75061;SDS011;63641;46.526;24.612;2023-04-24T09:02:05;5.78;;;2.80;;
75061;SDS011;63641;46.526;24.612;2023-04-24T09:04:36;3.20;;;2.72;;
75061;SDS011;63641;46.526;24.612;2023-04-24T09:07:04;3.30;;;3.00;;
75061;SDS011;63641;46.526;24.612;2023-04-24T09:09:33;3.17;;;2.88;;
75061;SDS011;63641;46.526;24.612;2023-04-24T09:12:01;3.85;;;2.88;;
75061;SDS011;63641;46.526;24.612;2023-04-24T09:14:30;3.30;;;3.00;;
75061;SDS011;63641;46.526;24.612;2023-04-24T09:16:58;3.53;;;2.78;;
75061;SDS011;63641;46.526;24.612;2023-04-24T09:19:24;4.30;;;3.10;;
75061;SDS011;63641;46.526;24.612;2023-04-24T09:21:52;3.67;;;2.83;;
75061;SDS011;63641;46.526;24.612;2023-04-24T09:24:20;3.30;;;2.63;;
75061;SDS011;63641;46.526;24.612;2023-04-24T09:26:57;3.67;;;2.55;;
75061;SDS011;63641;46.526;24.612;2023-04-24T09:29:36;3.65;;;2.85;;
75061;SDS011;63641;46.526;24.612;2023-04-24T09:32:21;3.88;;;2.65;;
75061;SDS011;63641;46.526;24.612;2023-04-24T09:37:38;3.42;;;2.83;;
75061;SDS011;63641;46.526;24.612;2023-04-24T09:42:34;4.10;;;2.67;;
75061;SDS011;63641;46.526;24.612;2023-04-24T09:45:01;3.85;;;2.60;;
75061;SDS011;63641;46.526;24.612;2023-04-24T09:47:39;3.60;;;2.65;;
75061;SDS011;63641;46.526;24.612;2023-04-24T09:50:11;3.10;;;2.60;;
75061;SDS011;63641;46.526;24.612;2023-04-24T09:52:45;4.03;;;2.97;;
75061;SDS011;63641;46.526;24.612;2023-04-24T09:55:18;3.53;;;2.65;;
75061;SDS011;63641;46.526;24.612;2023-04-24T09:57:49;3.28;;;2.67;;
75061;SDS011;63641;46.526;24.612;2023-04-24T10:00:18;3.90;;;2.78;;
75061;SDS011;63641;46.526;24.612;2023-04-24T10:02:51;2.92;;;2.70;;
75061;SDS011;63641;46.526;24.612;2023-04-24T10:05:28;3.63;;;3.30;;
75061;SDS011;63641;46.526;24.612;2023-04-24T10:08:06;3.20;;;2.63;;
75061;SDS011;63641;46.526;24.612;2023-04-24T10:10:37;2.65;;;2.42;;
75061;SDS011;63641;46.526;24.612;2023-04-24T10:13:07;2.78;;;2.53;;
75061;SDS011;63641;46.526;24.612;2023-04-24T10:15:35;3.30;;;2.65;;
75061;SDS011;63641;46.526;24.612;2023-04-24T10:18:04;4.22;;;3.10;;
75061;SDS011;63641;46.526;24.612;2023-04-24T10:20:33;3.42;;;3.03;;
75061;SDS011;63641;46.526;24.612;2023-04-24T10:23:01;3.83;;;2.70;;
75061;SDS011;63641;46.526;24.612;2023-04-24T10:25:30;3.10;;;2.80;;
75061;SDS011;63641;46.526;24.612;2023-04-24T10:27:59;3.58;;;2.67;;
75061;SDS011;63641;46.526;24.612;2023-04-24T10:30:27;4.28;;;2.60;;
75061;SDS011;63641;46.526;24.612;2023-04-24T10:32:55;3.35;;;2.80;;
75061;SDS011;63641;46.526;24.612;2023-04-24T10:35:22;3.25;;;2.95;;
75061;SDS011;63641;46.526;24.612;2023-04-24T10:38:09;3.55;;;2.53;;
75061;SDS011;63641;46.526;24.612;2023-04-24T10:40:38;2.72;;;2.42;;
75061;SDS011;63641;46.526;24.612;2023-04-24T10:43:06;4.45;;;2.70;;
75061;SDS011;63641;46.526;24.612;2023-04-24T10:45:38;3.13;;;2.58;;
75061;SDS011;63641;46.526;24.612;2023-04-24T10:48:06;3.20;;;2.90;;
75061;SDS011;63641;46.526;24.612;2023-04-24T10:50:46;3.10;;;2.50;;
75061;SDS011;63641;46.526;24.612;2023-04-24T10:53:20;3.00;;;2.67;;
75061;SDS011;63641;46.526;24.612;2023-04-24T10:56:02;5.60;;;2.72;;
75061;SDS011;63641;46.526;24.612;2023-04-24T10:58:41;2.88;;;2.40;;
75061;SDS011;63641;46.526;24.612;2023-04-24T11:01:25;3.33;;;2.60;;
75061;SDS011;63641;46.526;24.612;2023-04-24T11:04:04;2.80;;;2.53;;
75061;SDS011;63641;46.526;24.612;2023-04-24T11:06:35;3.65;;;2.90;;
75061;SDS011;63641;46.526;24.612;2023-04-24T11:11:34;3.55;;;2.78;;
75061;SDS011;63641;46.526;24.612;2023-04-24T11:14:03;4.90;;;2.95;;
75061;SDS011;63641;46.526;24.612;2023-04-24T11:16:43;2.65;;;2.45;;
75061;SDS011;63641;46.526;24.612;2023-04-24T11:21:54;4.50;;;2.83;;
75061;SDS011;63641;46.526;24.612;2023-04-24T11:27:16;5.38;;;2.55;;
75061;SDS011;63641;46.526;24.612;2023-04-24T11:32:18;5.43;;;2.90;;
75061;SDS011;63641;46.526;24.612;2023-04-24T11:35:01;3.88;;;2.78;;
75061;SDS011;63641;46.526;24.612;2023-04-24T11:37:33;3.03;;;2.72;;
75061;SDS011;63641;46.526;24.612;2023-04-24T11:40:01;4.50;;;2.58;;
75061;SDS011;63641;46.526;24.612;2023-04-24T11:42:36;3.42;;;2.70;;
75061;SDS011;63641;46.526;24.612;2023-04-24T11:45:07;3.90;;;2.38;;
75061;SDS011;63641;46.526;24.612;2023-04-24T11:47:35;3.28;;;2.83;;
75061;SDS011;63641;46.526;24.612;2023-04-24T11:50:02;3.38;;;2.53;;
75061;SDS011;63641;46.526;24.612;2023-04-24T11:52:31;3.38;;;2.30;;
75061;SDS011;63641;46.526;24.612;2023-04-24T11:54:59;2.80;;;2.50;;
75061;SDS011;63641;46.526;24.612;2023-04-24T11:57:27;3.00;;;2.63;;
75061;SDS011;63641;46.526;24.612;2023-04-24T12:00:00;2.95;;;2.72;;
75061;SDS011;63641;46.526;24.612;2023-04-24T12:02:30;4.80;;;2.88;;
75061;SDS011;63641;46.526;24.612;2023-04-24T12:04:57;3.80;;;2.60;;
75061;SDS011;63641;46.526;24.612;2023-04-24T12:07:25;3.67;;;2.60;;
75061;SDS011;63641;46.526;24.612;2023-04-24T12:09:58;4.57;;;2.63;;
75061;SDS011;63641;46.526;24.612;2023-04-24T12:12:29;4.90;;;2.78;;
75061;SDS011;63641;46.526;24.612;2023-04-24T12:14:56;3.78;;;2.55;;
75061;SDS011;63641;46.526;24.612;2023-04-24T12:17:25;2.60;;;2.40;;
75061;SDS011;63641;46.526;24.612;2023-04-24T12:20:02;2.72;;;2.47;;
75061;SDS011;63641;46.526;24.612;2023-04-24T12:25:17;3.90;;;2.90;;
75061;SDS011;63641;46.526;24.612;2023-04-24T12:27:45;3.35;;;2.83;;
75061;SDS011;63641;46.526;24.612;2023-04-24T12:30:14;2.90;;;2.70;;
75061;SDS011;63641;46.526;24.612;2023-04-24T12:32:42;3.08;;;2.80;;
75061;SDS011;63641;46.526;24.612;2023-04-24T12:35:10;4.35;;;3.00;;
75061;SDS011;63641;46.526;24.612;2023-04-24T12:37:36;3.42;;;2.75;;
75061;SDS011;63641;46.526;24.612;2023-04-24T12:40:06;5.05;;;2.53;;
75061;SDS011;63641;46.526;24.612;2023-04-24T12:42:35;3.75;;;2.58;;
75061;SDS011;63641;46.526;24.612;2023-04-24T12:45:07;4.00;;;2.80;;
75061;SDS011;63641;46.526;24.612;2023-04-24T12:47:34;4.38;;;2.90;;
75061;SDS011;63641;46.526;24.612;2023-04-24T12:50:02;2.80;;;2.53;;
75061;SDS011;63641;46.526;24.612;2023-04-24T12:52:30;3.28;;;2.97;;
75061;SDS011;63641;46.526;24.612;2023-04-24T12:54:58;3.63;;;2.70;;
75061;SDS011;63641;46.526;24.612;2023-04-24T12:57:27;4.05;;;2.60;;
75061;SDS011;63641;46.526;24.612;2023-04-24T12:59:56;2.58;;;2.38;;
75061;SDS011;63641;46.526;24.612;2023-04-24T13:02:24;3.38;;;2.67;;
75061;SDS011;63641;46.526;24.612;2023-04-24T13:04:52;2.92;;;2.67;;
75061;SDS011;63641;46.526;24.612;2023-04-24T13:07:19;5.13;;;2.78;;
75061;SDS011;63641;46.526;24.612;2023-04-24T13:09:46;3.83;;;2.63;;
75061;SDS011;63641;46.526;24.612;2023-04-24T13:12:14;3.05;;;2.78;;
75061;SDS011;63641;46.526;24.612;2023-04-24T13:14:41;3.78;;;2.85;;
75061;SDS011;63641;46.526;24.612;2023-04-24T13:17:08;3.22;;;2.83;;
75061;SDS011;63641;46.526;24.612;2023-04-24T13:19:42;7.85;;;2.88;;
75061;SDS011;63641;46.526;24.612;2023-04-24T13:24:37;3.13;;;2.83;;
75061;SDS011;63641;46.526;24.612;2023-04-24T13:27:07;3.53;;;3.20;;
75061;SDS011;63641;46.526;24.612;2023-04-24T13:29:35;3.13;;;2.83;;
75061;SDS011;63641;46.526;24.612;2023-04-24T13:32:03;3.03;;;2.83;;
75061;SDS011;63641;46.526;24.612;2023-04-24T13:34:30;3.60;;;2.85;;
75061;SDS011;63641;46.526;24.612;2023-04-24T13:36:57;4.18;;;2.75;;
75061;SDS011;63641;46.526;24.612;2023-04-24T13:39:25;3.63;;;3.15;;
75061;SDS011;63641;46.526;24.612;2023-04-24T13:41:52;3.47;;;3.00;;
75061;SDS011;63641;46.526;24.612;2023-04-24T13:44:21;2.90;;;2.70;;
75061;SDS011;63641;46.526;24.612;2023-04-24T13:46:49;3.20;;;2.90;;
75061;SDS011;63641;46.526;24.612;2023-04-24T13:49:20;3.25;;;2.85;;
75061;SDS011;63641;46.526;24.612;2023-04-24T13:51:48;3.58;;;2.65;;
75061;SDS011;63641;46.526;24.612;2023-04-24T13:54:14;5.40;;;2.88;;
75061;SDS011;63641;46.526;24.612;2023-04-24T13:56:41;4.05;;;3.03;;
75061;SDS011;63641;46.526;24.612;2023-04-24T13:59:08;3.30;;;3.00;;
75061;SDS011;63641;46.526;24.612;2023-04-24T14:01:35;2.95;;;2.75;;
75061;SDS011;63641;46.526;24.612;2023-04-24T14:04:02;5.45;;;2.78;;
75061;SDS011;63641;46.526;24.612;2023-04-24T14:06:29;3.78;;;3.22;;
75061;SDS011;63641;46.526;24.612;2023-04-24T14:08:59;3.08;;;2.78;;
75061;SDS011;63641;46.526;24.612;2023-04-24T14:11:26;3.70;;;3.05;;
75061;SDS011;63641;46.526;24.612;2023-04-24T14:13:54;3.45;;;3.15;;
75061;SDS011;63641;46.526;24.612;2023-04-24T14:16:24;3.17;;;2.70;;
75061;SDS011;63641;46.526;24.612;2023-04-24T14:18:51;3.35;;;2.97;;
75061;SDS011;63641;46.526;24.612;2023-04-24T14:21:18;3.38;;;3.00;;
75061;SDS011;63641;46.526;24.612;2023-04-24T14:23:44;5.05;;;3.00;;
75061;SDS011;63641;46.526;24.612;2023-04-24T14:26:12;3.05;;;2.70;;
75061;SDS011;63641;46.526;24.612;2023-04-24T14:28:38;4.75;;;2.95;;
75061;SDS011;63641;46.526;24.612;2023-04-24T14:31:05;3.83;;;3.10;;
75061;SDS011;63641;46.526;24.612;2023-04-24T14:33:32;8.85;;;3.15;;
75061;SDS011;63641;46.526;24.612;2023-04-24T14:35:59;3.45;;;3.00;;
75061;SDS011;63641;46.526;24.612;2023-04-24T14:38:25;3.45;;;3.15;;
75061;SDS011;63641;46.526;24.612;2023-04-24T14:40:52;9.75;;;3.10;;
75061;SDS011;63641;46.526;24.612;2023-04-24T14:43:22;3.72;;;2.90;;
75061;SDS011;63641;46.526;24.612;2023-04-24T14:45:49;3.85;;;2.78;;
75061;SDS011;63641;46.526;24.612;2023-04-24T14:48:16;3.40;;;3.10;;
75061;SDS011;63641;46.526;24.612;2023-04-24T14:50:43;3.20;;;2.90;;
75061;SDS011;63641;46.526;24.612;2023-04-24T14:53:11;4.38;;;3.00;;
75061;SDS011;63641;46.526;24.612;2023-04-24T14:55:38;4.05;;;2.92;;
75061;SDS011;63641;46.526;24.612;2023-04-24T14:58:04;3.80;;;3.30;;
75061;SDS011;63641;46.526;24.612;2023-04-24T15:00:31;3.28;;;2.95;;